sensor_id;sensor_type;location;lat;lon;timestamp;temperature;humidity
2999;DHT22;1509;51.964;7.628;2023-10-31T00:01:03;12.70;99.90
2999;DHT22;1509;51.964;7.628;2023-10-31T00:03:28;12.60;99.90
2999;DHT22;1509;51.964;7.628;2023-10-31T00:05:54;12.60;99.90
2999;DHT22;1509;51.964;7.628;2023-10-31T00:08:20;12.60;99.90
2999;DHT22;1509;51.964;7.628;2023-10-31T00:10:45;12.50;99.90
2999;DHT22;1509;51.964;7.628;2023-10-31T00:13:11;12.50;99.90
2999;DHT22;1509;51.964;7.628;2023-10-31T00:15:37;12.60;99.90
2999;DHT22;1509;51.964;7.628;2023-10-31T00:18:04;12.60;99.90
2999;DHT22;1509;51.964;7.628;2023-10-31T00:20:29;12.60;99.90
2999;DHT22;1509;51.964;7.628;2023-10-31T00:22:55;12.60;99.90
2999;DHT22;1509;51.964;7.628;2023-10-31T00:25:21;12.60;99.90
2999;DHT22;1509;51.964;7.628;2023-10-31T00:27:46;12.60;99.90
2999;DHT22;1509;51.964;7.628;2023-10-31T00:30:12;12.60;99.90
2999;DHT22;1509;51.964;7.628;2023-10-31T00:32:38;12.60;99.90
2999;DHT22;1509;51.964;7.628;2023-10-31T00:35:03;12.60;99.90
2999;DHT22;1509;51.964;7.628;2023-10-31T00:37:29;12.60;99.90
2999;DHT22;1509;51.964;7.628;2023-10-31T00:39:55;12.60;99.90
2999;DHT22;1509;51.964;7.628;2023-10-31T00:42:20;12.60;99.90
2999;DHT22;1509;51.964;7.628;2023-10-31T00:44:46;12.60;99.90
2999;DHT22;1509;51.964;7.628;2023-10-31T00:47:11;12.60;99.90
2999;DHT22;1509;51.964;7.628;2023-10-31T00:49:37;12.60;99.90
2999;DHT22;1509;51.964;7.628;2023-10-31T00:52:03;12.60;99.90
2999;DHT22;1509;51.964;7.628;2023-10-31T00:54:28;12.60;99.90
2999;DHT22;1509;51.964;7.628;2023-10-31T00:56:54;12.60;99.90
2999;DHT22;1509;51.964;7.628;2023-10-31T00:59:20;12.50;99.90
2999;DHT22;1509;51.964;7.628;2023-10-31T01:01:45;12.50;99.90
2999;DHT22;1509;51.964;7.628;2023-10-31T01:04:11;12.50;99.90
2999;DHT22;1509;51.964;7.628;2023-10-31T01:06:41;12.50;99.90
2999;DHT22;1509;51.964;7.628;2023-10-31T01:09:06;12.60;99.90
2999;DHT22;1509;51.964;7.628;2023-10-31T01:11:32;12.50;99.90
2999;DHT22;1509;51.964;7.628;2023-10-31T01:14:00;12.50;99.90
2999;DHT22;1509;51.964;7.628;2023-10-31T01:16:26;12.40;99.90
2999;DHT22;1509;51.964;7.628;2023-10-31T01:18:51;12.40;99.90
2999;DHT22;1509;51.964;7.628;2023-10-31T01:21:17;12.50;99.90
2999;DHT22;1509;51.964;7.628;2023-10-31T01:23:42;12.40;99.90
2999;DHT22;1509;51.964;7.628;2023-10-31T01:26:08;12.40;99.90
2999;DHT22;1509;51.964;7.628;2023-10-31T01:28:34;12.40;99.90
2999;DHT22;1509;51.964;7.628;2023-10-31T01:30:59;12.40;99.90
2999;DHT22;1509;51.964;7.628;2023-10-31T01:33:28;12.30;99.90
2999;DHT22;1509;51.964;7.628;2023-10-31T01:35:53;12.00;99.90
2999;DHT22;1509;51.964;7.628;2023-10-31T01:38:19;11.80;99.90
2999;DHT22;1509;51.964;7.628;2023-10-31T01:40:49;11.60;99.90
2999;DHT22;1509;51.964;7.628;2023-10-31T01:43:32;11.40;99.90
2999;DHT22;1509;51.964;7.628;2023-10-31T01:45:58;11.40;99.90
2999;DHT22;1509;51.964;7.628;2023-10-31T01:48:25;11.20;99.90
2999;DHT22;1509;51.964;7.628;2023-10-31T01:50:52;11.10;99.90
2999;DHT22;1509;51.964;7.628;2023-10-31T01:53:18;11.00;99.90
2999;DHT22;1509;51.964;7.628;2023-10-31T01:55:45;10.90;99.90
2999;DHT22;1509;51.964;7.628;2023-10-31T01:58:11;10.70;99.90
2999;DHT22;1509;51.964;7.628;2023-10-31T02:00:40;10.60;99.90
2999;DHT22;1509;51.964;7.628;2023-10-31T02:03:07;10.60;99.90
2999;DHT22;1509;51.964;7.628;2023-10-31T02:05:34;10.60;99.90
2999;DHT22;1509;51.964;7.628;2023-10-31T02:08:03;10.50;99.90
2999;DHT22;1509;51.964;7.628;2023-10-31T02:10:28;10.50;99.90
2999;DHT22;1509;51.964;7.628;2023-10-31T02:12:54;10.50;99.90
2999;DHT22;1509;51.964;7.628;2023-10-31T02:15:19;10.40;99.90
2999;DHT22;1509;51.964;7.628;2023-10-31T02:17:45;10.40;99.90
2999;DHT22;1509;51.964;7.628;2023-10-31T02:20:11;10.40;99.90
2999;DHT22;1509;51.964;7.628;2023-10-31T02:22:36;10.40;99.90
2999;DHT22;1509;51.964;7.628;2023-10-31T02:25:02;10.40;99.90
2999;DHT22;1509;51.964;7.628;2023-10-31T02:27:28;10.30;99.90
2999;DHT22;1509;51.964;7.628;2023-10-31T02:29:53;10.30;99.90
2999;DHT22;1509;51.964;7.628;2023-10-31T02:32:19;10.40;99.90
2999;DHT22;1509;51.964;7.628;2023-10-31T02:34:45;10.30;99.90
2999;DHT22;1509;51.964;7.628;2023-10-31T02:37:13;10.30;99.90
2999;DHT22;1509;51.964;7.628;2023-10-31T02:39:42;10.30;99.90
2999;DHT22;1509;51.964;7.628;2023-10-31T02:42:08;10.30;99.90
2999;DHT22;1509;51.964;7.628;2023-10-31T02:44:33;10.30;99.90
2999;DHT22;1509;51.964;7.628;2023-10-31T02:46:59;10.40;99.90
2999;DHT22;1509;51.964;7.628;2023-10-31T02:49:24;10.40;99.90
2999;DHT22;1509;51.964;7.628;2023-10-31T02:51:50;10.40;99.90
2999;DHT22;1509;51.964;7.628;2023-10-31T02:54:15;10.40;99.90
2999;DHT22;1509;51.964;7.628;2023-10-31T02:56:41;10.40;99.90
2999;DHT22;1509;51.964;7.628;2023-10-31T02:59:06;10.40;99.90
2999;DHT22;1509;51.964;7.628;2023-10-31T03:01:32;10.40;99.90
2999;DHT22;1509;51.964;7.628;2023-10-31T03:03:58;10.40;99.90
2999;DHT22;1509;51.964;7.628;2023-10-31T03:06:26;10.40;99.90
2999;DHT22;1509;51.964;7.628;2023-10-31T03:08:52;10.40;99.90
2999;DHT22;1509;51.964;7.628;2023-10-31T03:11:25;10.40;99.90
2999;DHT22;1509;51.964;7.628;2023-10-31T03:13:51;10.40;99.90
2999;DHT22;1509;51.964;7.628;2023-10-31T03:16:16;10.40;99.90
2999;DHT22;1509;51.964;7.628;2023-10-31T03:18:42;10.40;99.90
2999;DHT22;1509;51.964;7.628;2023-10-31T03:21:08;10.40;99.90
2999;DHT22;1509;51.964;7.628;2023-10-31T03:23:33;10.40;99.90
2999;DHT22;1509;51.964;7.628;2023-10-31T03:25:59;10.40;99.90
2999;DHT22;1509;51.964;7.628;2023-10-31T03:28:24;10.50;99.90
2999;DHT22;1509;51.964;7.628;2023-10-31T03:30:51;10.50;99.90
2999;DHT22;1509;51.964;7.628;2023-10-31T03:33:16;10.40;99.90
2999;DHT22;1509;51.964;7.628;2023-10-31T03:35:43;10.40;99.90
2999;DHT22;1509;51.964;7.628;2023-10-31T03:38:09;10.40;99.90
2999;DHT22;1509;51.964;7.628;2023-10-31T03:40:34;10.40;99.90
2999;DHT22;1509;51.964;7.628;2023-10-31T03:43:00;10.40;99.90
2999;DHT22;1509;51.964;7.628;2023-10-31T03:45:25;10.40;99.90
2999;DHT22;1509;51.964;7.628;2023-10-31T03:47:51;10.40;99.90
2999;DHT22;1509;51.964;7.628;2023-10-31T03:50:17;10.40;99.90
2999;DHT22;1509;51.964;7.628;2023-10-31T03:52:42;10.40;99.90
2999;DHT22;1509;51.964;7.628;2023-10-31T03:55:10;10.40;99.90
2999;DHT22;1509;51.964;7.628;2023-10-31T03:57:36;10.40;99.90
2999;DHT22;1509;51.964;7.628;2023-10-31T04:00:02;10.40;99.90
2999;DHT22;1509;51.964;7.628;2023-10-31T04:02:30;10.40;99.90
2999;DHT22;1509;51.964;7.628;2023-10-31T04:04:55;10.40;99.90
2999;DHT22;1509;51.964;7.628;2023-10-31T04:07:21;10.40;99.90
2999;DHT22;1509;51.964;7.628;2023-10-31T04:09:46;10.40;99.90
2999;DHT22;1509;51.964;7.628;2023-10-31T04:12:12;10.40;99.90
2999;DHT22;1509;51.964;7.628;2023-10-31T04:14:38;10.40;99.90
2999;DHT22;1509;51.964;7.628;2023-10-31T04:17:04;10.50;99.90
2999;DHT22;1509;51.964;7.628;2023-10-31T04:19:30;10.50;99.90
2999;DHT22;1509;51.964;7.628;2023-10-31T04:21:55;10.40;99.90
2999;DHT22;1509;51.964;7.628;2023-10-31T04:24:21;10.50;99.90
2999;DHT22;1509;51.964;7.628;2023-10-31T04:26:47;10.50;99.90
2999;DHT22;1509;51.964;7.628;2023-10-31T04:29:12;10.50;99.90
2999;DHT22;1509;51.964;7.628;2023-10-31T04:31:39;10.50;99.90
2999;DHT22;1509;51.964;7.628;2023-10-31T04:34:04;10.50;99.90
2999;DHT22;1509;51.964;7.628;2023-10-31T04:36:30;10.50;99.90
2999;DHT22;1509;51.964;7.628;2023-10-31T04:38:56;10.50;99.90
2999;DHT22;1509;51.964;7.628;2023-10-31T04:41:21;10.60;99.90
2999;DHT22;1509;51.964;7.628;2023-10-31T04:43:47;10.60;99.90
2999;DHT22;1509;51.964;7.628;2023-10-31T04:46:12;10.60;99.90
2999;DHT22;1509;51.964;7.628;2023-10-31T04:48:38;10.60;99.90
2999;DHT22;1509;51.964;7.628;2023-10-31T04:51:04;10.60;99.90
2999;DHT22;1509;51.964;7.628;2023-10-31T04:53:30;10.60;99.90
2999;DHT22;1509;51.964;7.628;2023-10-31T04:55:58;10.60;99.90
2999;DHT22;1509;51.964;7.628;2023-10-31T04:58:23;10.60;99.90
2999;DHT22;1509;51.964;7.628;2023-10-31T05:00:49;10.60;99.90
2999;DHT22;1509;51.964;7.628;2023-10-31T05:03:14;10.50;99.90
2999;DHT22;1509;51.964;7.628;2023-10-31T05:05:40;10.50;99.90
2999;DHT22;1509;51.964;7.628;2023-10-31T05:08:06;10.30;99.90
2999;DHT22;1509;51.964;7.628;2023-10-31T05:10:32;10.30;99.90
2999;DHT22;1509;51.964;7.628;2023-10-31T05:12:57;10.20;99.90
2999;DHT22;1509;51.964;7.628;2023-10-31T05:15:23;10.20;99.90
2999;DHT22;1509;51.964;7.628;2023-10-31T05:17:48;10.20;99.90
2999;DHT22;1509;51.964;7.628;2023-10-31T05:20:14;10.20;99.90
2999;DHT22;1509;51.964;7.628;2023-10-31T05:22:41;10.20;99.90
2999;DHT22;1509;51.964;7.628;2023-10-31T05:25:06;10.20;99.90
2999;DHT22;1509;51.964;7.628;2023-10-31T05:27:32;10.10;99.90
2999;DHT22;1509;51.964;7.628;2023-10-31T05:29:58;10.10;99.90
2999;DHT22;1509;51.964;7.628;2023-10-31T05:32:23;10.10;99.90
2999;DHT22;1509;51.964;7.628;2023-10-31T05:34:49;10.10;99.90
2999;DHT22;1509;51.964;7.628;2023-10-31T05:37:14;10.10;99.90
2999;DHT22;1509;51.964;7.628;2023-10-31T05:39:40;10.10;99.90
2999;DHT22;1509;51.964;7.628;2023-10-31T05:42:05;10.10;99.90
2999;DHT22;1509;51.964;7.628;2023-10-31T05:44:31;10.10;99.90
2999;DHT22;1509;51.964;7.628;2023-10-31T05:46:57;10.10;99.90
2999;DHT22;1509;51.964;7.628;2023-10-31T05:49:22;10.10;99.90
2999;DHT22;1509;51.964;7.628;2023-10-31T05:51:51;10.10;99.90
2999;DHT22;1509;51.964;7.628;2023-10-31T05:54:17;10.10;99.90
2999;DHT22;1509;51.964;7.628;2023-10-31T05:56:43;10.10;99.90
2999;DHT22;1509;51.964;7.628;2023-10-31T05:59:10;10.10;99.90
2999;DHT22;1509;51.964;7.628;2023-10-31T06:01:36;10.10;99.90
2999;DHT22;1509;51.964;7.628;2023-10-31T06:04:02;10.10;99.90
2999;DHT22;1509;51.964;7.628;2023-10-31T06:06:28;10.10;99.90
2999;DHT22;1509;51.964;7.628;2023-10-31T06:08:53;10.10;99.90
2999;DHT22;1509;51.964;7.628;2023-10-31T06:11:19;10.10;99.90
2999;DHT22;1509;51.964;7.628;2023-10-31T06:13:44;10.10;99.90
2999;DHT22;1509;51.964;7.628;2023-10-31T06:16:10;10.00;99.90
2999;DHT22;1509;51.964;7.628;2023-10-31T06:18:38;10.00;99.90
2999;DHT22;1509;51.964;7.628;2023-10-31T06:21:04;10.00;99.90
2999;DHT22;1509;51.964;7.628;2023-10-31T06:23:30;10.00;99.90
2999;DHT22;1509;51.964;7.628;2023-10-31T06:25:55;10.00;99.90
2999;DHT22;1509;51.964;7.628;2023-10-31T06:28:21;10.10;99.90
2999;DHT22;1509;51.964;7.628;2023-10-31T06:30:46;10.00;99.90
2999;DHT22;1509;51.964;7.628;2023-10-31T06:33:12;10.00;99.90
2999;DHT22;1509;51.964;7.628;2023-10-31T06:35:40;10.00;99.90
2999;DHT22;1509;51.964;7.628;2023-10-31T06:38:06;10.00;99.90
2999;DHT22;1509;51.964;7.628;2023-10-31T06:40:32;10.00;99.90
2999;DHT22;1509;51.964;7.628;2023-10-31T06:42:58;9.90;99.90
2999;DHT22;1509;51.964;7.628;2023-10-31T06:45:24;10.00;99.90
2999;DHT22;1509;51.964;7.628;2023-10-31T06:47:50;10.00;99.90
2999;DHT22;1509;51.964;7.628;2023-10-31T06:50:15;10.00;99.90
2999;DHT22;1509;51.964;7.628;2023-10-31T06:52:41;9.90;99.90
2999;DHT22;1509;51.964;7.628;2023-10-31T06:55:07;9.90;99.90
2999;DHT22;1509;51.964;7.628;2023-10-31T06:57:32;9.90;99.90
2999;DHT22;1509;51.964;7.628;2023-10-31T06:59:58;9.90;99.90
2999;DHT22;1509;51.964;7.628;2023-10-31T07:02:24;9.90;99.90
2999;DHT22;1509;51.964;7.628;2023-10-31T07:04:51;10.00;99.90
2999;DHT22;1509;51.964;7.628;2023-10-31T07:07:17;9.90;99.90
2999;DHT22;1509;51.964;7.628;2023-10-31T07:09:42;9.90;99.90
2999;DHT22;1509;51.964;7.628;2023-10-31T07:12:08;9.90;99.90
2999;DHT22;1509;51.964;7.628;2023-10-31T07:14:33;9.90;99.90
2999;DHT22;1509;51.964;7.628;2023-10-31T07:16:59;9.90;99.90
2999;DHT22;1509;51.964;7.628;2023-10-31T07:19:25;9.90;99.90
2999;DHT22;1509;51.964;7.628;2023-10-31T07:21:50;9.90;99.90
2999;DHT22;1509;51.964;7.628;2023-10-31T07:24:16;9.90;99.90
2999;DHT22;1509;51.964;7.628;2023-10-31T07:26:41;9.90;99.90
2999;DHT22;1509;51.964;7.628;2023-10-31T07:29:07;9.90;99.90
2999;DHT22;1509;51.964;7.628;2023-10-31T07:31:33;9.80;99.90
2999;DHT22;1509;51.964;7.628;2023-10-31T07:33:59;9.90;99.90
2999;DHT22;1509;51.964;7.628;2023-10-31T07:36:24;9.90;99.90
2999;DHT22;1509;51.964;7.628;2023-10-31T07:38:50;9.90;99.90
2999;DHT22;1509;51.964;7.628;2023-10-31T07:41:16;9.90;99.90
2999;DHT22;1509;51.964;7.628;2023-10-31T07:43:41;10.00;99.90
2999;DHT22;1509;51.964;7.628;2023-10-31T07:46:07;10.50;99.90
2999;DHT22;1509;51.964;7.628;2023-10-31T07:48:33;10.90;99.90
2999;DHT22;1509;51.964;7.628;2023-10-31T07:50:58;10.90;99.90
2999;DHT22;1509;51.964;7.628;2023-10-31T07:53:24;11.20;99.90
2999;DHT22;1509;51.964;7.628;2023-10-31T07:55:49;11.40;99.90
2999;DHT22;1509;51.964;7.628;2023-10-31T07:58:15;11.90;99.90
2999;DHT22;1509;51.964;7.628;2023-10-31T08:00:41;12.30;99.90
2999;DHT22;1509;51.964;7.628;2023-10-31T08:03:06;12.80;99.90
2999;DHT22;1509;51.964;7.628;2023-10-31T08:05:32;13.00;99.90
2999;DHT22;1509;51.964;7.628;2023-10-31T08:07:57;13.00;99.90
2999;DHT22;1509;51.964;7.628;2023-10-31T08:10:24;12.90;99.90
2999;DHT22;1509;51.964;7.628;2023-10-31T08:12:49;12.50;99.90
2999;DHT22;1509;51.964;7.628;2023-10-31T08:15:15;11.80;99.90
2999;DHT22;1509;51.964;7.628;2023-10-31T08:17:42;11.50;99.90
2999;DHT22;1509;51.964;7.628;2023-10-31T08:20:08;11.20;99.90
2999;DHT22;1509;51.964;7.628;2023-10-31T08:22:36;11.00;99.90
2999;DHT22;1509;51.964;7.628;2023-10-31T08:25:02;10.90;99.90
2999;DHT22;1509;51.964;7.628;2023-10-31T08:27:28;11.70;99.90
2999;DHT22;1509;51.964;7.628;2023-10-31T08:29:54;12.20;99.90
2999;DHT22;1509;51.964;7.628;2023-10-31T08:32:19;12.00;99.90
2999;DHT22;1509;51.964;7.628;2023-10-31T08:34:46;11.80;99.90
2999;DHT22;1509;51.964;7.628;2023-10-31T08:37:12;12.10;99.90
2999;DHT22;1509;51.964;7.628;2023-10-31T08:39:38;12.20;99.90
2999;DHT22;1509;51.964;7.628;2023-10-31T08:42:03;12.70;99.90
2999;DHT22;1509;51.964;7.628;2023-10-31T08:44:29;13.30;99.90
2999;DHT22;1509;51.964;7.628;2023-10-31T08:46:55;13.90;99.90
2999;DHT22;1509;51.964;7.628;2023-10-31T08:49:20;14.00;99.90
2999;DHT22;1509;51.964;7.628;2023-10-31T08:51:46;13.80;99.90
2999;DHT22;1509;51.964;7.628;2023-10-31T08:54:23;13.90;99.90
2999;DHT22;1509;51.964;7.628;2023-10-31T08:56:51;14.20;99.90
2999;DHT22;1509;51.964;7.628;2023-10-31T08:59:17;13.60;99.90
2999;DHT22;1509;51.964;7.628;2023-10-31T09:01:42;13.10;99.90
2999;DHT22;1509;51.964;7.628;2023-10-31T09:04:08;12.70;99.90
2999;DHT22;1509;51.964;7.628;2023-10-31T09:06:34;12.30;99.90
2999;DHT22;1509;51.964;7.628;2023-10-31T09:08:59;12.20;99.90
2999;DHT22;1509;51.964;7.628;2023-10-31T09:11:25;12.20;99.90
2999;DHT22;1509;51.964;7.628;2023-10-31T09:13:51;12.10;99.90
2999;DHT22;1509;51.964;7.628;2023-10-31T09:16:16;12.10;99.90
2999;DHT22;1509;51.964;7.628;2023-10-31T09:18:42;12.10;99.90
2999;DHT22;1509;51.964;7.628;2023-10-31T09:21:09;12.00;99.90
2999;DHT22;1509;51.964;7.628;2023-10-31T09:23:34;12.00;99.90
2999;DHT22;1509;51.964;7.628;2023-10-31T09:26:00;12.00;99.90
2999;DHT22;1509;51.964;7.628;2023-10-31T09:28:25;12.00;99.90
2999;DHT22;1509;51.964;7.628;2023-10-31T09:30:51;11.90;99.90
2999;DHT22;1509;51.964;7.628;2023-10-31T09:33:17;11.90;99.90
2999;DHT22;1509;51.964;7.628;2023-10-31T09:35:43;11.80;99.90
2999;DHT22;1509;51.964;7.628;2023-10-31T09:38:08;11.80;99.90
2999;DHT22;1509;51.964;7.628;2023-10-31T09:40:37;11.70;99.90
2999;DHT22;1509;51.964;7.628;2023-10-31T09:43:03;11.70;99.90
2999;DHT22;1509;51.964;7.628;2023-10-31T09:45:30;11.70;99.90
2999;DHT22;1509;51.964;7.628;2023-10-31T09:47:56;11.70;99.90
2999;DHT22;1509;51.964;7.628;2023-10-31T09:50:22;11.70;99.90
2999;DHT22;1509;51.964;7.628;2023-10-31T09:52:48;11.70;99.90
2999;DHT22;1509;51.964;7.628;2023-10-31T09:55:14;11.70;99.90
2999;DHT22;1509;51.964;7.628;2023-10-31T09:57:39;11.60;99.90
2999;DHT22;1509;51.964;7.628;2023-10-31T10:00:06;11.60;99.90
2999;DHT22;1509;51.964;7.628;2023-10-31T10:02:32;11.80;99.90
2999;DHT22;1509;51.964;7.628;2023-10-31T10:04:57;11.90;99.90
2999;DHT22;1509;51.964;7.628;2023-10-31T10:07:23;11.90;99.90
2999;DHT22;1509;51.964;7.628;2023-10-31T10:09:50;11.80;99.90
2999;DHT22;1509;51.964;7.628;2023-10-31T10:12:16;11.80;99.90
2999;DHT22;1509;51.964;7.628;2023-10-31T10:14:44;11.80;99.90
2999;DHT22;1509;51.964;7.628;2023-10-31T10:17:20;11.70;99.90
2999;DHT22;1509;51.964;7.628;2023-10-31T10:19:46;11.70;99.90
2999;DHT22;1509;51.964;7.628;2023-10-31T10:22:12;11.80;99.90
2999;DHT22;1509;51.964;7.628;2023-10-31T10:24:40;11.80;99.90
2999;DHT22;1509;51.964;7.628;2023-10-31T10:27:09;11.80;99.90
2999;DHT22;1509;51.964;7.628;2023-10-31T10:29:37;11.90;99.90
2999;DHT22;1509;51.964;7.628;2023-10-31T10:32:05;11.80;99.90
2999;DHT22;1509;51.964;7.628;2023-10-31T10:34:33;11.90;99.90
2999;DHT22;1509;51.964;7.628;2023-10-31T10:36:59;11.90;99.90
2999;DHT22;1509;51.964;7.628;2023-10-31T10:39:24;11.90;99.90
2999;DHT22;1509;51.964;7.628;2023-10-31T10:41:54;11.90;99.90
2999;DHT22;1509;51.964;7.628;2023-10-31T10:44:34;12.00;99.90
2999;DHT22;1509;51.964;7.628;2023-10-31T10:47:04;12.10;99.90
2999;DHT22;1509;51.964;7.628;2023-10-31T10:49:36;12.00;99.90
2999;DHT22;1509;51.964;7.628;2023-10-31T10:52:19;12.00;99.90
2999;DHT22;1509;51.964;7.628;2023-10-31T10:55:01;12.00;99.90
2999;DHT22;1509;51.964;7.628;2023-10-31T10:57:41;12.00;99.90
2999;DHT22;1509;51.964;7.628;2023-10-31T11:00:08;12.10;99.90
2999;DHT22;1509;51.964;7.628;2023-10-31T11:02:39;12.20;99.90
2999;DHT22;1509;51.964;7.628;2023-10-31T11:05:06;12.30;99.90
2999;DHT22;1509;51.964;7.628;2023-10-31T11:07:34;12.40;99.90
2999;DHT22;1509;51.964;7.628;2023-10-31T11:10:00;12.60;99.90
2999;DHT22;1509;51.964;7.628;2023-10-31T11:12:29;12.80;99.90
2999;DHT22;1509;51.964;7.628;2023-10-31T11:14:59;12.70;99.90
2999;DHT22;1509;51.964;7.628;2023-10-31T11:17:31;12.70;99.90
2999;DHT22;1509;51.964;7.628;2023-10-31T11:19:58;12.70;99.90
2999;DHT22;1509;51.964;7.628;2023-10-31T11:22:24;12.70;99.90
2999;DHT22;1509;51.964;7.628;2023-10-31T11:24:50;12.70;99.90
2999;DHT22;1509;51.964;7.628;2023-10-31T11:27:17;12.70;99.90
2999;DHT22;1509;51.964;7.628;2023-10-31T11:29:43;12.70;99.90
2999;DHT22;1509;51.964;7.628;2023-10-31T11:32:11;12.70;99.90
2999;DHT22;1509;51.964;7.628;2023-10-31T11:34:38;12.70;99.90
2999;DHT22;1509;51.964;7.628;2023-10-31T11:40:14;12.70;99.90
2999;DHT22;1509;51.964;7.628;2023-10-31T11:42:51;12.60;99.90
2999;DHT22;1509;51.964;7.628;2023-10-31T11:45:47;12.60;99.90
2999;DHT22;1509;51.964;7.628;2023-10-31T11:48:14;12.60;99.90
2999;DHT22;1509;51.964;7.628;2023-10-31T11:50:41;12.70;99.90
2999;DHT22;1509;51.964;7.628;2023-10-31T11:53:15;12.70;99.90
2999;DHT22;1509;51.964;7.628;2023-10-31T11:55:44;12.80;99.90
2999;DHT22;1509;51.964;7.628;2023-10-31T11:58:16;12.90;99.90
2999;DHT22;1509;51.964;7.628;2023-10-31T12:00:43;12.80;99.90
2999;DHT22;1509;51.964;7.628;2023-10-31T12:03:10;12.90;99.90
2999;DHT22;1509;51.964;7.628;2023-10-31T12:05:35;12.80;99.90
2999;DHT22;1509;51.964;7.628;2023-10-31T12:08:01;12.70;99.90
2999;DHT22;1509;51.964;7.628;2023-10-31T12:10:28;12.70;99.90
2999;DHT22;1509;51.964;7.628;2023-10-31T12:12:57;12.70;99.90
2999;DHT22;1509;51.964;7.628;2023-10-31T12:15:24;12.60;99.90
2999;DHT22;1509;51.964;7.628;2023-10-31T12:17:50;12.60;99.90
2999;DHT22;1509;51.964;7.628;2023-10-31T12:20:15;12.40;99.90
2999;DHT22;1509;51.964;7.628;2023-10-31T12:22:42;12.40;99.90
2999;DHT22;1509;51.964;7.628;2023-10-31T12:25:09;12.30;99.90
2999;DHT22;1509;51.964;7.628;2023-10-31T12:27:49;12.30;99.90
2999;DHT22;1509;51.964;7.628;2023-10-31T12:30:20;12.20;99.90
2999;DHT22;1509;51.964;7.628;2023-10-31T12:32:53;12.10;99.90
2999;DHT22;1509;51.964;7.628;2023-10-31T12:35:21;12.00;99.90
2999;DHT22;1509;51.964;7.628;2023-10-31T12:37:48;12.00;99.90
2999;DHT22;1509;51.964;7.628;2023-10-31T12:40:17;12.00;99.90
2999;DHT22;1509;51.964;7.628;2023-10-31T12:42:44;12.00;99.90
2999;DHT22;1509;51.964;7.628;2023-10-31T12:45:11;11.90;99.90
2999;DHT22;1509;51.964;7.628;2023-10-31T12:47:37;11.80;99.90
2999;DHT22;1509;51.964;7.628;2023-10-31T12:50:29;11.60;99.90
2999;DHT22;1509;51.964;7.628;2023-10-31T12:52:58;11.50;99.90
2999;DHT22;1509;51.964;7.628;2023-10-31T12:55:26;11.40;99.90
2999;DHT22;1509;51.964;7.628;2023-10-31T12:57:52;11.40;99.90
2999;DHT22;1509;51.964;7.628;2023-10-31T13:00:20;11.30;99.90
2999;DHT22;1509;51.964;7.628;2023-10-31T13:02:58;11.30;99.90
2999;DHT22;1509;51.964;7.628;2023-10-31T13:05:25;11.30;99.90
2999;DHT22;1509;51.964;7.628;2023-10-31T13:07:52;11.30;99.90
2999;DHT22;1509;51.964;7.628;2023-10-31T13:10:19;11.30;99.90
2999;DHT22;1509;51.964;7.628;2023-10-31T13:12:45;11.30;99.90
2999;DHT22;1509;51.964;7.628;2023-10-31T13:15:14;11.30;99.90
2999;DHT22;1509;51.964;7.628;2023-10-31T13:17:41;11.40;99.90
2999;DHT22;1509;51.964;7.628;2023-10-31T13:20:19;11.50;99.90
2999;DHT22;1509;51.964;7.628;2023-10-31T13:22:48;11.50;99.90
2999;DHT22;1509;51.964;7.628;2023-10-31T13:25:15;11.50;99.90
2999;DHT22;1509;51.964;7.628;2023-10-31T13:27:42;11.50;99.90
2999;DHT22;1509;51.964;7.628;2023-10-31T13:30:11;11.50;99.90
2999;DHT22;1509;51.964;7.628;2023-10-31T13:32:38;11.50;99.90
2999;DHT22;1509;51.964;7.628;2023-10-31T13:35:06;11.50;99.90
2999;DHT22;1509;51.964;7.628;2023-10-31T13:37:35;11.60;99.90
2999;DHT22;1509;51.964;7.628;2023-10-31T13:40:00;11.60;99.90
2999;DHT22;1509;51.964;7.628;2023-10-31T13:42:26;11.60;99.90
2999;DHT22;1509;51.964;7.628;2023-10-31T13:44:53;11.70;99.90
2999;DHT22;1509;51.964;7.628;2023-10-31T13:47:19;11.70;99.90
2999;DHT22;1509;51.964;7.628;2023-10-31T13:49:44;11.80;99.90
2999;DHT22;1509;51.964;7.628;2023-10-31T13:52:10;11.80;99.90
2999;DHT22;1509;51.964;7.628;2023-10-31T13:54:36;11.80;99.90
2999;DHT22;1509;51.964;7.628;2023-10-31T13:57:02;11.80;99.90
2999;DHT22;1509;51.964;7.628;2023-10-31T13:59:27;11.70;99.90
2999;DHT22;1509;51.964;7.628;2023-10-31T14:01:53;11.70;99.90
2999;DHT22;1509;51.964;7.628;2023-10-31T14:04:19;11.70;99.90
2999;DHT22;1509;51.964;7.628;2023-10-31T14:06:45;11.70;99.90
2999;DHT22;1509;51.964;7.628;2023-10-31T14:09:11;11.80;99.90
2999;DHT22;1509;51.964;7.628;2023-10-31T14:11:38;12.00;99.90
2999;DHT22;1509;51.964;7.628;2023-10-31T14:14:04;12.00;99.90
2999;DHT22;1509;51.964;7.628;2023-10-31T14:16:43;12.00;99.90
2999;DHT22;1509;51.964;7.628;2023-10-31T14:19:10;12.00;99.90
2999;DHT22;1509;51.964;7.628;2023-10-31T14:21:37;12.00;99.90
2999;DHT22;1509;51.964;7.628;2023-10-31T14:24:03;11.90;99.90
2999;DHT22;1509;51.964;7.628;2023-10-31T14:26:29;12.00;99.90
2999;DHT22;1509;51.964;7.628;2023-10-31T14:28:55;11.90;99.90
2999;DHT22;1509;51.964;7.628;2023-10-31T14:31:21;12.00;99.90
2999;DHT22;1509;51.964;7.628;2023-10-31T14:33:49;12.00;99.90
2999;DHT22;1509;51.964;7.628;2023-10-31T14:36:15;12.00;99.90
2999;DHT22;1509;51.964;7.628;2023-10-31T14:38:41;12.00;99.90
2999;DHT22;1509;51.964;7.628;2023-10-31T14:41:07;12.00;99.90
2999;DHT22;1509;51.964;7.628;2023-10-31T14:43:34;11.90;99.90
2999;DHT22;1509;51.964;7.628;2023-10-31T14:46:00;11.90;99.90
2999;DHT22;1509;51.964;7.628;2023-10-31T14:48:25;11.90;99.90
2999;DHT22;1509;51.964;7.628;2023-10-31T14:50:51;11.90;99.90
2999;DHT22;1509;51.964;7.628;2023-10-31T14:53:17;12.00;99.90
2999;DHT22;1509;51.964;7.628;2023-10-31T14:55:46;12.10;99.90
2999;DHT22;1509;51.964;7.628;2023-10-31T14:58:14;12.10;99.90
2999;DHT22;1509;51.964;7.628;2023-10-31T15:00:40;12.20;99.90
2999;DHT22;1509;51.964;7.628;2023-10-31T15:03:06;12.20;99.90
2999;DHT22;1509;51.964;7.628;2023-10-31T15:05:32;12.20;99.90
2999;DHT22;1509;51.964;7.628;2023-10-31T15:07:58;12.20;99.90
2999;DHT22;1509;51.964;7.628;2023-10-31T15:10:24;12.20;99.90
2999;DHT22;1509;51.964;7.628;2023-10-31T15:12:51;12.10;99.90
2999;DHT22;1509;51.964;7.628;2023-10-31T15:15:17;12.10;99.90
2999;DHT22;1509;51.964;7.628;2023-10-31T15:17:43;12.10;99.90
2999;DHT22;1509;51.964;7.628;2023-10-31T15:20:11;12.10;99.90
2999;DHT22;1509;51.964;7.628;2023-10-31T15:22:40;12.00;99.90
2999;DHT22;1509;51.964;7.628;2023-10-31T15:25:09;12.00;99.90
2999;DHT22;1509;51.964;7.628;2023-10-31T15:27:35;12.00;99.90
2999;DHT22;1509;51.964;7.628;2023-10-31T15:30:06;11.90;99.90
2999;DHT22;1509;51.964;7.628;2023-10-31T15:32:33;11.90;99.90
2999;DHT22;1509;51.964;7.628;2023-10-31T15:34:59;11.90;99.90
2999;DHT22;1509;51.964;7.628;2023-10-31T15:37:25;11.90;99.90
2999;DHT22;1509;51.964;7.628;2023-10-31T15:39:51;11.80;99.90
2999;DHT22;1509;51.964;7.628;2023-10-31T15:42:17;11.90;99.90
2999;DHT22;1509;51.964;7.628;2023-10-31T15:44:45;11.80;99.90
2999;DHT22;1509;51.964;7.628;2023-10-31T15:47:11;11.80;99.90
2999;DHT22;1509;51.964;7.628;2023-10-31T15:49:38;11.70;99.90
2999;DHT22;1509;51.964;7.628;2023-10-31T15:52:04;11.70;99.90
2999;DHT22;1509;51.964;7.628;2023-10-31T15:54:30;11.70;99.90
2999;DHT22;1509;51.964;7.628;2023-10-31T15:56:55;11.70;99.90
2999;DHT22;1509;51.964;7.628;2023-10-31T15:59:21;11.70;99.90
2999;DHT22;1509;51.964;7.628;2023-10-31T16:01:47;11.70;99.90